Time;durP1;ratioP1;P1;durP2;ratioP2;P2;SDS_P1;SDS_P2;PMS_P1;PMS_P2;Temp;Humidity;BMP_temperature;BMP_pressure;BME280_temperature;BME280_humidity;BME280_pressure;Samples;Min_cycle;Max_cycle;Signal;HPM_P1;HPM_P2
2023/11/22 00:02:21;;;;;;;7.38;3.65;;;6.40;99.90;;;;;;6207040;23;20083;-76
2023/11/22 00:04:46;;;;;;;9.93;3.90;;;6.40;99.90;;;;;;6208219;23;20335;-76
2023/11/22 00:07:12;;;;;;;7.45;3.45;;;6.40;99.90;;;;;;6207344;23;20540;-77
2023/11/22 00:09:38;;;;;;;10.80;3.45;;;6.40;99.90;;;;;;6208721;23;20013;-76
2023/11/22 00:12:04;;;;;;;6.07;3.40;;;6.40;99.90;;;;;;6208673;23;20039;-77
2023/11/22 00:14:29;;;;;;;7.65;3.40;;;6.30;99.90;;;;;;6205333;23;20423;-76
2023/11/22 00:16:55;;;;;;;7.63;3.45;;;6.40;99.90;;;;;;6210271;23;20405;-76
2023/11/22 00:19:23;;;;;;;8.23;4.10;;;6.30;99.90;;;;;;6209811;23;20649;-76
2023/11/22 00:21:49;;;;;;;8.50;3.85;;;6.30;99.90;;;;;;6209204;23;20020;-76
2023/11/22 00:24:14;;;;;;;10.45;3.95;;;6.30;99.90;;;;;;6207214;23;20008;-77
2023/11/22 00:26:40;;;;;;;7.45;3.55;;;6.30;99.90;;;;;;6208342;23;20066;-75
2023/11/22 00:29:06;;;;;;;11.02;4.40;;;6.30;99.90;;;;;;6206949;23;20016;-76
2023/11/22 00:31:31;;;;;;;7.43;3.42;;;6.30;99.90;;;;;;6206794;23;20009;-75
2023/11/22 00:33:57;;;;;;;8.73;3.53;;;6.30;99.90;;;;;;6206741;23;20039;-76
2023/11/22 00:36:22;;;;;;;6.70;3.25;;;6.30;99.90;;;;;;6207112;23;20020;-76
2023/11/22 00:38:48;;;;;;;6.47;3.53;;;6.30;99.90;;;;;;6205964;23;20391;-78
2023/11/22 00:41:17;;;;;;;11.07;3.30;;;6.30;99.90;;;;;;6207014;23;20445;-76
2023/11/22 00:43:42;;;;;;;6.25;3.75;;;6.30;99.90;;;;;;6208614;23;20071;-76
2023/11/22 00:46:08;;;;;;;10.70;3.80;;;6.30;99.90;;;;;;6205522;23;20397;-77
2023/11/22 00:48:33;;;;;;;6.75;4.03;;;6.30;99.90;;;;;;6206258;23;20504;-75
2023/11/22 00:50:59;;;;;;;7.55;3.75;;;6.30;99.90;;;;;;6208659;23;20099;-76
2023/11/22 00:53:25;;;;;;;6.82;3.63;;;6.30;99.90;;;;;;6205440;23;20012;-76
2023/11/22 00:55:50;;;;;;;9.57;3.92;;;6.30;99.90;;;;;;6208278;23;20019;-76
2023/11/22 00:58:16;;;;;;;9.50;4.53;;;6.30;99.90;;;;;;6206720;23;20013;-76
2023/11/22 01:00:41;;;;;;;7.50;3.92;;;6.30;99.90;;;;;;6208738;23;20024;-77
2023/11/22 01:03:11;;;;;;;8.15;3.40;;;6.30;99.90;;;;;;6207937;23;20456;-76
2023/11/22 01:05:37;;;;;;;7.85;3.28;;;6.30;99.90;;;;;;6209662;23;20021;-75
2023/11/22 01:08:03;;;;;;;8.07;3.45;;;6.30;99.90;;;;;;6211518;23;20036;-76
2023/11/22 01:10:28;;;;;;;8.43;3.47;;;6.30;99.90;;;;;;6207831;23;20095;-77
2023/11/22 01:12:54;;;;;;;6.78;3.45;;;6.20;99.90;;;;;;6206775;23;20028;-76
2023/11/22 01:15:19;;;;;;;9.07;4.38;;;6.20;99.90;;;;;;6204992;23;20013;-77
2023/11/22 01:17:45;;;;;;;8.85;3.65;;;6.20;99.90;;;;;;6210093;23;20079;-76
2023/11/22 01:20:11;;;;;;;9.95;3.30;;;6.20;99.90;;;;;;6205887;23;20331;-77
2023/11/22 01:22:37;;;;;;;8.15;3.47;;;6.20;99.90;;;;;;6207765;23;20013;-76
2023/11/22 01:25:04;;;;;;;8.32;3.70;;;6.20;99.90;;;;;;6209874;23;20008;-77
2023/11/22 01:27:30;;;;;;;8.88;4.22;;;6.20;99.90;;;;;;6206554;23;20012;-76
2023/11/22 01:29:56;;;;;;;10.60;4.35;;;6.20;99.90;;;;;;6209761;23;20506;-76
2023/11/22 01:32:22;;;;;;;7.75;3.72;;;6.20;99.90;;;;;;6207169;23;20019;-77
2023/11/22 01:34:47;;;;;;;6.60;3.25;;;6.20;99.90;;;;;;6209692;23;20021;-76
2023/11/22 01:37:13;;;;;;;10.48;4.28;;;6.20;99.90;;;;;;6206184;23;20160;-77
2023/11/22 01:39:41;;;;;;;7.03;3.60;;;6.20;99.90;;;;;;6209681;23;20008;-77
2023/11/22 01:42:07;;;;;;;9.10;3.83;;;6.10;99.90;;;;;;6208157;23;20004;-76
2023/11/22 01:44:33;;;;;;;8.18;3.95;;;6.10;99.90;;;;;;6209266;23;20473;-76
2023/11/22 01:46:59;;;;;;;13.93;4.10;;;6.10;99.90;;;;;;6207601;23;20013;-77
2023/11/22 01:49:24;;;;;;;12.05;4.15;;;6.10;99.90;;;;;;6208217;23;20008;-77
2023/11/22 01:51:50;;;;;;;8.88;4.32;;;6.10;99.90;;;;;;6209532;23;20005;-75
2023/11/22 01:54:18;;;;;;;8.18;3.90;;;6.10;99.90;;;;;;6206652;23;20016;-77
2023/11/22 01:56:45;;;;;;;8.57;3.97;;;6.10;99.90;;;;;;6207957;23;20016;-76
2023/11/22 01:59:11;;;;;;;13.48;5.32;;;6.10;99.90;;;;;;6206342;23;20004;-77
2023/11/22 02:01:37;;;;;;;14.45;4.30;;;6.10;99.90;;;;;;6209782;23;20012;-76
2023/11/22 02:04:02;;;;;;;11.95;4.10;;;6.10;99.90;;;;;;6207965;23;20001;-76
2023/11/22 02:06:31;;;;;;;9.68;4.47;;;6.10;99.90;;;;;;6208421;23;20027;-76
2023/11/22 02:08:56;;;;;;;10.85;4.85;;;6.10;99.90;;;;;;6209941;23;20017;-76
2023/11/22 02:11:24;;;;;;;23.02;5.28;;;6.10;99.90;;;;;;6206241;23;20075;-77
2023/11/22 02:13:50;;;;;;;8.35;4.10;;;6.10;99.90;;;;;;6209593;23;20013;-77
2023/11/22 02:16:16;;;;;;;9.40;4.53;;;6.10;99.90;;;;;;6206188;23;20072;-76
2023/11/22 02:18:45;;;;;;;9.55;4.25;;;6.10;99.90;;;;;;6207332;23;20017;-74
2023/11/22 02:21:10;;;;;;;10.48;4.65;;;6.00;99.90;;;;;;6208211;23;20042;-76
2023/11/22 02:23:36;;;;;;;13.50;5.97;;;6.00;99.90;;;;;;6209364;23;20084;-75
2023/11/22 02:26:02;;;;;;;10.18;4.72;;;6.00;99.90;;;;;;6207342;23;20008;-77
2023/11/22 02:28:28;;;;;;;11.70;4.57;;;6.00;99.90;;;;;;6206182;23;20021;-76
2023/11/22 02:30:54;;;;;;;11.10;4.75;;;5.90;99.90;;;;;;6207538;23;20028;-77
2023/11/22 02:33:20;;;;;;;10.30;4.40;;;6.00;99.90;;;;;;6208151;23;20516;-77
2023/11/22 02:35:45;;;;;;;11.45;4.93;;;6.00;99.90;;;;;;6209150;23;20016;-76
2023/11/22 02:38:11;;;;;;;9.82;3.92;;;5.90;99.90;;;;;;6207338;23;20020;-76
2023/11/22 02:40:37;;;;;;;7.90;3.97;;;5.90;99.90;;;;;;6207367;23;20005;-76
2023/11/22 02:43:07;;;;;;;12.85;4.50;;;5.90;99.90;;;;;;6208845;23;20315;-76
2023/11/22 02:45:33;;;;;;;8.43;4.30;;;5.90;99.90;;;;;;6206055;23;20012;-77
2023/11/22 02:48:01;;;;;;;9.82;4.60;;;5.80;99.90;;;;;;6208554;23;20008;-78
2023/11/22 02:50:27;;;;;;;12.25;4.88;;;5.80;99.90;;;;;;6205898;23;20012;-77
2023/11/22 02:52:53;;;;;;;8.68;3.97;;;5.70;99.90;;;;;;6207480;23;20016;-76
2023/11/22 02:55:19;;;;;;;14.43;5.38;;;5.70;99.90;;;;;;6207359;23;20070;-76
2023/11/22 02:57:45;;;;;;;9.82;4.80;;;5.60;99.90;;;;;;6208826;23;20001;-78
2023/11/22 03:00:14;;;;;;;10.95;5.20;;;5.60;99.90;;;;;;6207887;23;20028;-77
2023/11/22 03:02:41;;;;;;;12.57;4.93;;;5.50;99.90;;;;;;6207481;23;20324;-77
2023/11/22 03:05:10;;;;;;;9.38;4.72;;;5.50;99.90;;;;;;6208974;23;20079;-78
2023/11/22 03:07:37;;;;;;;8.98;4.53;;;5.50;99.90;;;;;;6208008;23;20081;-77
2023/11/22 03:10:04;;;;;;;9.60;4.68;;;5.50;99.90;;;;;;6209000;23;20080;-76
2023/11/22 03:12:29;;;;;;;9.30;4.03;;;5.50;99.90;;;;;;6206023;23;20005;-76
2023/11/22 03:14:58;;;;;;;9.07;4.78;;;5.50;99.90;;;;;;6208670;23;20001;-76
2023/11/22 03:17:24;;;;;;;11.07;5.35;;;5.50;99.90;;;;;;6207620;23;20013;-77
2023/11/22 03:19:50;;;;;;;11.07;5.25;;;5.50;99.90;;;;;;6207129;23;20019;-75
2023/11/22 03:22:15;;;;;;;12.25;5.05;;;5.50;99.90;;;;;;6205742;23;20016;-76
2023/11/22 03:24:42;;;;;;;10.35;5.40;;;5.50;99.90;;;;;;6208195;23;20442;-75
2023/11/22 03:27:07;;;;;;;10.43;5.18;;;5.50;99.90;;;;;;6207229;23;20040;-76
2023/11/22 03:29:34;;;;;;;11.27;5.47;;;5.50;99.90;;;;;;6206108;23;20013;-78
2023/11/22 03:32:00;;;;;;;12.45;5.47;;;5.40;99.90;;;;;;6207111;23;20001;-77
2023/11/22 03:34:26;;;;;;;11.75;4.90;;;5.40;99.90;;;;;;6206236;23;20013;-77
2023/11/22 03:36:51;;;;;;;12.98;5.50;;;5.40;99.90;;;;;;6206597;23;20358;-76
2023/11/22 03:39:17;;;;;;;10.65;5.65;;;5.40;99.90;;;;;;6206049;23;20095;-77
2023/11/22 03:41:43;;;;;;;10.40;4.93;;;5.40;99.90;;;;;;6206806;23;20881;-75
2023/11/22 03:44:09;;;;;;;12.63;5.82;;;5.30;99.90;;;;;;6204779;23;20088;-77
2023/11/22 03:46:36;;;;;;;10.98;5.38;;;5.30;99.90;;;;;;6205405;23;20007;-76
2023/11/22 03:49:03;;;;;;;9.82;4.60;;;5.30;99.90;;;;;;6208091;23;20760;-77
2023/11/22 03:51:28;;;;;;;9.73;5.40;;;5.30;99.90;;;;;;6205919;23;20012;-77
2023/11/22 03:53:54;;;;;;;11.95;4.72;;;5.30;99.90;;;;;;6206127;23;20023;-77
2023/11/22 03:56:21;;;;;;;10.55;5.28;;;5.30;99.90;;;;;;6205435;23;20008;-77
2023/11/22 03:58:47;;;;;;;13.30;5.80;;;5.30;99.90;;;;;;6206637;23;20013;-76
2023/11/22 04:01:12;;;;;;;10.13;4.90;;;5.30;99.90;;;;;;6204170;23;20379;-76
2023/11/22 04:03:38;;;;;;;11.73;4.53;;;5.30;99.90;;;;;;6205963;23;20016;-76
2023/11/22 04:06:03;;;;;;;14.15;6.18;;;5.30;99.90;;;;;;6208080;23;20496;-77
2023/11/22 04:08:29;;;;;;;10.65;4.70;;;5.30;99.90;;;;;;6205752;23;20327;-75
2023/11/22 04:10:55;;;;;;;11.00;5.05;;;5.30;99.90;;;;;;6208486;23;20004;-77
2023/11/22 04:13:21;;;;;;;12.60;5.15;;;5.30;99.90;;;;;;6205406;23;20469;-76
2023/11/22 04:15:46;;;;;;;11.65;5.88;;;5.40;99.90;;;;;;6206901;23;20067;-76
2023/11/22 04:18:12;;;;;;;12.35;5.20;;;5.40;99.90;;;;;;6206958;23;20020;-76
2023/11/22 04:20:37;;;;;;;11.27;5.63;;;5.40;99.90;;;;;;6208354;23;20008;-77
2023/11/22 04:23:03;;;;;;;16.08;5.63;;;5.40;99.90;;;;;;6206858;23;20088;-76
2023/11/22 04:25:29;;;;;;;12.85;5.80;;;5.40;99.90;;;;;;6206986;23;20009;-76
2023/11/22 04:27:54;;;;;;;13.45;5.53;;;5.40;99.90;;;;;;6206585;23;20108;-76
2023/11/22 04:30:20;;;;;;;11.65;5.53;;;5.40;99.90;;;;;;6205683;23;20569;-77
2023/11/22 04:32:46;;;;;;;12.60;5.78;;;5.40;99.90;;;;;;6209016;23;20037;-78
2023/11/22 04:35:13;;;;;;;13.85;5.60;;;5.50;99.90;;;;;;6207431;23;20000;-76
2023/11/22 04:37:38;;;;;;;10.85;4.80;;;5.40;99.90;;;;;;6208532;23;20320;-77
2023/11/22 04:40:08;;;;;;;11.77;5.25;;;5.40;99.90;;;;;;6207069;23;20046;-77
2023/11/22 04:42:36;;;;;;;12.55;5.47;;;5.40;99.90;;;;;;6205612;23;20009;-76
2023/11/22 04:45:02;;;;;;;11.88;5.03;;;5.40;99.90;;;;;;6206681;23;20009;-76
2023/11/22 04:47:28;;;;;;;12.82;5.55;;;5.40;99.90;;;;;;6207286;23;20319;-76
2023/11/22 04:49:53;;;;;;;10.82;4.57;;;5.40;99.90;;;;;;6207255;23;20023;-77
2023/11/22 04:52:19;;;;;;;13.35;6.07;;;5.40;99.90;;;;;;6207443;23;20398;-75
2023/11/22 04:54:44;;;;;;;12.60;4.90;;;5.40;99.90;;;;;;6210420;23;20342;-77
2023/11/22 04:57:10;;;;;;;10.48;5.20;;;5.40;99.90;;;;;;6209218;23;20040;-77
2023/11/22 04:59:36;;;;;;;10.77;4.68;;;5.40;99.90;;;;;;6210463;23;20043;-77
2023/11/22 05:02:01;;;;;;;10.23;5.00;;;5.40;99.90;;;;;;6210884;23;20092;-77
2023/11/22 05:04:27;;;;;;;9.88;4.82;;;5.40;99.90;;;;;;6207183;23;20239;-76
2023/11/22 05:06:53;;;;;;;13.93;5.38;;;5.40;99.90;;;;;;6208480;23;20075;-76
2023/11/22 05:09:19;;;;;;;15.35;4.78;;;5.40;99.90;;;;;;6209103;23;20013;-77
2023/11/22 05:11:45;;;;;;;11.80;4.70;;;5.40;99.90;;;;;;6210123;23;20473;-76
2023/11/22 05:14:13;;;;;;;12.85;5.47;;;5.30;99.90;;;;;;6207141;23;20095;-77
2023/11/22 05:16:38;;;;;;;11.25;5.10;;;5.30;99.90;;;;;;6208623;23;20506;-76
2023/11/22 05:19:04;;;;;;;12.65;5.75;;;5.40;99.90;;;;;;6210775;23;20091;-77
2023/11/22 05:21:29;;;;;;;13.82;5.00;;;5.30;99.90;;;;;;6207477;23;20032;-77
2023/11/22 05:23:55;;;;;;;11.75;5.10;;;5.30;99.90;;;;;;6210493;23;20024;-76
2023/11/22 05:26:21;;;;;;;10.48;4.88;;;5.30;99.90;;;;;;6208987;23;20439;-76
2023/11/22 05:28:47;;;;;;;9.45;3.95;;;5.30;99.90;;;;;;6210110;23;20013;-75
2023/11/22 05:31:13;;;;;;;13.15;4.75;;;5.40;99.90;;;;;;6208988;23;20017;-76
2023/11/22 05:33:39;;;;;;;12.75;5.13;;;5.40;99.90;;;;;;6208759;23;20020;-75
2023/11/22 05:36:06;;;;;;;11.07;4.93;;;5.40;99.90;;;;;;6210359;23;20009;-77
2023/11/22 05:38:33;;;;;;;11.95;5.53;;;5.40;99.90;;;;;;6208608;23;20016;-76
2023/11/22 05:40:59;;;;;;;11.93;4.90;;;5.30;99.90;;;;;;6210641;23;20525;-77
2023/11/22 05:43:26;;;;;;;14.00;5.25;;;5.30;99.90;;;;;;6209148;23;20012;-77
2023/11/22 05:45:55;;;;;;;12.48;5.07;;;5.30;99.90;;;;;;6208401;23;20055;-77
2023/11/22 05:48:20;;;;;;;13.32;5.53;;;5.30;99.90;;;;;;6206214;23;20016;-77
2023/11/22 05:50:47;;;;;;;16.10;6.20;;;5.30;99.90;;;;;;6209009;23;20007;-77
2023/11/22 05:53:19;;;;;;;8.70;4.13;;;5.30;99.90;;;;;;6207472;23;20013;-76
2023/11/22 05:55:45;;;;;;;11.43;5.10;;;5.20;99.90;;;;;;6208768;23;20037;-77
2023/11/22 05:58:11;;;;;;;10.05;4.05;;;5.20;99.90;;;;;;6209595;23;20016;-75
2023/11/22 06:00:38;;;;;;;11.30;5.20;;;5.20;99.90;;;;;;6206149;23;20058;-77
2023/11/22 06:03:04;;;;;;;11.48;4.65;;;5.20;99.90;;;;;;6205267;23;20496;-76
2023/11/22 06:05:30;;;;;;;12.45;5.75;;;5.30;99.90;;;;;;6204257;23;20093;-76
2023/11/22 06:07:56;;;;;;;16.25;5.68;;;5.20;99.90;;;;;;6206878;23;20008;-76
2023/11/22 06:10:22;;;;;;;11.15;4.88;;;5.20;99.90;;;;;;6206077;23;20016;-76
2023/11/22 06:12:48;;;;;;;12.38;4.47;;;5.20;99.90;;;;;;6206183;23;20390;-77
2023/11/22 06:15:13;;;;;;;10.40;5.22;;;5.20;99.90;;;;;;6204636;23;20016;-77
2023/11/22 06:17:39;;;;;;;15.02;5.50;;;5.10;99.90;;;;;;6207410;23;20075;-76
2023/11/22 06:20:06;;;;;;;10.80;4.88;;;5.20;99.90;;;;;;6206973;23;20012;-76
2023/11/22 06:22:32;;;;;;;10.07;4.53;;;5.10;99.90;;;;;;6205044;23;20013;-77
2023/11/22 06:24:58;;;;;;;10.73;5.15;;;5.20;99.90;;;;;;6207600;23;20437;-78
2023/11/22 06:27:23;;;;;;;13.80;5.57;;;5.20;99.90;;;;;;6206254;23;20028;-77
2023/11/22 06:29:49;;;;;;;13.80;4.53;;;5.10;99.90;;;;;;6205060;23;20019;-75
2023/11/22 06:32:14;;;;;;;11.50;5.07;;;5.10;99.90;;;;;;6205128;23;20058;-76
2023/11/22 06:34:40;;;;;;;12.05;5.25;;;5.10;99.90;;;;;;6206843;23;20055;-77
2023/11/22 06:37:08;;;;;;;12.13;5.35;;;5.10;99.90;;;;;;6206518;23;20012;-76
2023/11/22 06:39:35;;;;;;;14.93;5.85;;;5.10;99.90;;;;;;6205466;23;20020;-77
2023/11/22 06:42:00;;;;;;;12.48;5.03;;;5.10;99.90;;;;;;6205429;23;20091;-77
2023/11/22 06:44:27;;;;;;;14.10;5.22;;;5.20;99.90;;;;;;6203286;23;20028;-76
2023/11/22 06:46:53;;;;;;;11.70;5.25;;;5.10;99.90;;;;;;6204528;23;20017;-76
2023/11/22 06:49:19;;;;;;;11.98;5.47;;;5.10;99.90;;;;;;6205219;23;20036;-76
2023/11/22 06:51:44;;;;;;;14.30;5.07;;;5.10;99.90;;;;;;6206847;23;20023;-76
2023/11/22 06:54:10;;;;;;;14.13;5.50;;;5.10;99.90;;;;;;6206013;23;20009;-77
2023/11/22 06:56:36;;;;;;;13.00;5.45;;;5.10;99.90;;;;;;6206282;23;20005;-78
2023/11/22 06:59:01;;;;;;;13.73;5.07;;;5.10;99.90;;;;;;6206436;22;20009;-76
2023/11/22 07:01:27;;;;;;;14.95;5.00;;;5.10;99.90;;;;;;6204929;23;20043;-77
2023/11/22 07:03:53;;;;;;;12.77;5.70;;;5.10;99.90;;;;;;6204564;23;20323;-77
2023/11/22 07:06:18;;;;;;;15.77;5.90;;;5.10;99.90;;;;;;6202939;23;20034;-75
2023/11/22 07:08:47;;;;;;;14.35;5.80;;;5.10;99.90;;;;;;6204446;23;20039;-76
2023/11/22 07:11:13;;;;;;;10.25;4.93;;;5.10;99.90;;;;;;6204027;23;20001;-76
2023/11/22 07:13:40;;;;;;;14.38;6.15;;;5.00;99.90;;;;;;6203898;23;20067;-78
2023/11/22 07:16:07;;;;;;;14.80;6.10;;;5.00;99.90;;;;;;6204791;23;20143;-75
2023/11/22 07:18:33;;;;;;;12.77;6.38;;;5.00;99.90;;;;;;6204597;23;20040;-77
2023/11/22 07:20:59;;;;;;;11.38;4.70;;;5.00;99.90;;;;;;6205484;23;20020;-75
2023/11/22 07:23:28;;;;;;;12.60;5.35;;;5.00;99.90;;;;;;6203508;23;20004;-76
2023/11/22 07:25:54;;;;;;;21.05;6.82;;;5.10;99.90;;;;;;6206382;23;20012;-76
2023/11/22 07:28:20;;;;;;;15.85;6.80;;;5.10;99.90;;;;;;6204230;23;20047;-78
2023/11/22 07:30:48;;;;;;;14.18;5.95;;;5.00;99.90;;;;;;6205744;23;20001;-76
2023/11/22 07:33:18;;;;;;;11.68;5.53;;;5.00;99.90;;;;;;6203796;23;20013;-76
2023/11/22 07:35:44;;;;;;;12.18;4.00;;;5.00;99.90;;;;;;6205012;23;20001;-77
2023/11/22 07:38:11;;;;;;;12.65;5.85;;;4.90;99.90;;;;;;6203578;23;20011;-76
2023/11/22 07:40:37;;;;;;;12.93;5.07;;;5.00;99.90;;;;;;6204509;23;20088;-78
2023/11/22 07:43:04;;;;;;;14.73;6.35;;;4.90;99.90;;;;;;6207459;23;20067;-78
2023/11/22 07:45:31;;;;;;;14.95;5.43;;;4.90;99.90;;;;;;6205775;23;20008;-77
2023/11/22 07:47:59;;;;;;;16.60;7.05;;;5.00;99.90;;;;;;6207159;23;20016;-77
2023/11/22 07:50:27;;;;;;;12.90;5.72;;;5.00;99.90;;;;;;6204218;23;20358;-78
2023/11/22 07:52:54;;;;;;;14.70;5.88;;;5.00;99.90;;;;;;6207358;23;20098;-76
2023/11/22 07:55:20;;;;;;;14.60;6.47;;;5.00;99.90;;;;;;6205852;23;20009;-78
2023/11/22 07:57:45;;;;;;;14.85;6.40;;;5.00;99.90;;;;;;6205022;23;20439;-77
2023/11/22 08:00:12;;;;;;;13.50;6.00;;;4.90;99.90;;;;;;6202938;23;20402;-75
2023/11/22 08:02:42;;;;;;;13.85;6.22;;;4.90;99.90;;;;;;6205499;23;20008;-77
2023/11/22 08:05:08;;;;;;;;;;;4.90;99.90;;;;;;6207019;23;20339;-77
2023/11/22 08:07:40;;;;;;;13.88;5.78;;;4.90;99.90;;;;;;6206551;23;19908;-77
2023/11/22 08:10:18;;;;;;;14.10;6.13;;;4.90;99.90;;;;;;6206384;23;20446;-76
2023/11/22 08:12:45;;;;;;;17.20;6.60;;;4.90;99.90;;;;;;6204122;23;20019;-76
2023/11/22 08:15:14;;;;;;;12.88;6.72;;;4.90;99.90;;;;;;6203268;23;20004;-78
2023/11/22 08:17:40;;;;;;;14.90;5.68;;;4.90;99.90;;;;;;6204735;23;20447;-74
2023/11/22 08:20:11;;;;;;;13.85;5.80;;;4.90;99.90;;;;;;6206293;23;20024;-76
2023/11/22 08:22:38;;;;;;;15.27;6.53;;;4.90;99.90;;;;;;6204028;23;20012;-77
2023/11/22 08:25:05;;;;;;;15.75;6.60;;;4.90;99.90;;;;;;6204474;23;20036;-77
2023/11/22 08:27:31;;;;;;;13.32;5.70;;;4.90;99.90;;;;;;6204884;23;20544;-76
2023/11/22 08:29:57;;;;;;;17.00;6.53;;;4.90;99.90;;;;;;6205936;23;20004;-78
2023/11/22 08:32:27;;;;;;;15.02;6.15;;;5.00;99.90;;;;;;6205952;23;20016;-76
2023/11/22 08:34:53;;;;;;;11.77;5.60;;;5.00;99.90;;;;;;6207916;23;20472;-76
2023/11/22 08:37:18;;;;;;;15.75;7.18;;;5.10;99.90;;;;;;6206319;23;20008;-77
2023/11/22 08:39:44;;;;;;;15.02;6.57;;;5.10;99.90;;;;;;6207393;23;20092;-76
2023/11/22 08:42:10;;;;;;;15.57;6.38;;;5.20;99.90;;;;;;6205259;23;20517;-76
2023/11/22 08:44:38;;;;;;;14.63;6.70;;;5.20;99.90;;;;;;6207169;23;20009;-76
2023/11/22 08:47:04;;;;;;;15.18;6.63;;;5.30;99.90;;;;;;6208141;23;20028;-76
2023/11/22 08:49:30;;;;;;;14.30;6.15;;;5.40;99.90;;;;;;6207496;23;20024;-76
2023/11/22 08:51:56;;;;;;;16.63;7.18;;;5.50;99.90;;;;;;6206228;23;20035;-76
2023/11/22 08:54:22;;;;;;;13.77;6.82;;;5.50;99.90;;;;;;6206723;23;20012;-76
2023/11/22 08:56:48;;;;;;;12.02;5.18;;;5.50;99.90;;;;;;6207636;23;20484;-77
2023/11/22 08:59:14;;;;;;;13.50;5.90;;;5.60;99.90;;;;;;6204608;23;20091;-77
2023/11/22 09:01:45;;;;;;;16.05;5.28;;;5.60;99.90;;;;;;6206510;23;20019;-77
2023/11/22 09:04:11;;;;;;;11.50;5.82;;;5.60;99.90;;;;;;6206202;23;20008;-76
2023/11/22 09:06:36;;;;;;;13.77;6.18;;;5.60;99.90;;;;;;6205421;23;20025;-73
2023/11/22 09:09:03;;;;;;;14.90;6.40;;;5.60;99.90;;;;;;6207499;23;20008;-77
2023/11/22 09:11:28;;;;;;;13.65;5.80;;;5.70;99.90;;;;;;6206313;23;20379;-76
2023/11/22 09:13:57;;;;;;;11.93;5.75;;;5.70;99.90;;;;;;6205708;23;20090;-77
2023/11/22 09:16:24;;;;;;;15.02;6.43;;;5.60;99.90;;;;;;6206836;23;20016;-78
2023/11/22 09:18:51;;;;;;;14.00;6.60;;;5.70;99.90;;;;;;6205681;23;20024;-76
2023/11/22 09:21:16;;;;;;;14.98;6.93;;;5.70;99.90;;;;;;6204551;23;20758;-76
2023/11/22 09:23:47;;;;;;;15.05;6.10;;;5.70;99.90;;;;;;6207938;23;20016;-76
2023/11/22 09:26:14;;;;;;;15.85;6.28;;;5.80;99.90;;;;;;6206276;23;20048;-75
2023/11/22 09:28:41;;;;;;;13.10;6.30;;;5.80;99.90;;;;;;6205192;23;20016;-77
2023/11/22 09:31:06;;;;;;;12.13;5.95;;;5.90;99.90;;;;;;6205672;23;20028;-77
2023/11/22 09:33:32;;;;;;;14.85;6.35;;;5.90;99.90;;;;;;6206900;23;20009;-77
2023/11/22 09:35:58;;;;;;;17.60;7.78;;;6.00;99.90;;;;;;6207699;23;20008;-76
2023/11/22 09:38:24;;;;;;;11.75;5.15;;;6.00;99.90;;;;;;6206233;23;20028;-77
2023/11/22 09:40:51;;;;;;;12.68;6.13;;;6.00;99.90;;;;;;6207567;23;20437;-75
2023/11/22 09:43:18;;;;;;;13.73;5.82;;;6.10;99.90;;;;;;6205260;23;20032;-77
2023/11/22 09:45:44;;;;;;;14.57;5.60;;;6.10;99.90;;;;;;6206191;23;20351;-76
2023/11/22 09:48:18;;;;;;;12.13;5.80;;;6.20;99.90;;;;;;6204514;23;20087;-76
2023/11/22 09:51:08;;;;;;;13.73;6.40;;;6.20;99.90;;;;;;6207062;23;20012;-76
2023/11/22 09:54:04;;;;;;;12.98;6.25;;;6.30;99.90;;;;;;6206450;23;20339;-77
2023/11/22 09:56:30;;;;;;;12.48;5.70;;;6.30;99.90;;;;;;6198233;23;20031;-76
2023/11/22 09:59:00;;;;;;;14.00;6.57;;;6.30;99.90;;;;;;6207308;23;20039;-76
2023/11/22 10:01:48;;;;;;;13.38;6.32;;;6.30;99.90;;;;;;6206001;23;20103;-77
2023/11/22 10:04:13;;;;;;;14.45;6.38;;;6.30;99.90;;;;;;6205458;23;20020;-77
2023/11/22 10:06:40;;;;;;;16.08;6.28;;;6.40;99.90;;;;;;6207380;23;20008;-76
2023/11/22 10:09:07;;;;;;;11.75;5.60;;;6.30;99.90;;;;;;6205040;23;20012;-76
2023/11/22 10:11:38;;;;;;;11.07;5.13;;;6.30;99.90;;;;;;6206064;23;20019;-75
2023/11/22 10:14:04;;;;;;;12.75;5.38;;;6.30;99.90;;;;;;6207697;23;20216;-76
2023/11/22 10:16:30;;;;;;;12.60;6.15;;;6.30;99.90;;;;;;6205625;23;21221;-77
2023/11/22 10:18:57;;;;;;;14.18;7.22;;;6.30;99.90;;;;;;6207277;23;20464;-77
2023/11/22 10:21:28;;;;;;;16.25;5.97;;;6.40;99.90;;;;;;6206313;23;20016;-77
2023/11/22 10:23:56;;;;;;;;;;;6.40;99.90;;;;;;6207654;23;20087;-78
2023/11/22 10:26:23;;;;;;;13.35;6.07;;;6.50;99.90;;;;;;6203607;23;19911;-76
2023/11/22 10:28:51;;;;;;;15.60;7.18;;;6.50;99.90;;;;;;6207423;23;20013;-77
2023/11/22 10:31:17;;;;;;;10.95;5.47;;;6.50;99.90;;;;;;6205194;23;20016;-77
2023/11/22 10:33:43;;;;;;;13.90;6.53;;;6.50;99.90;;;;;;6203113;23;20020;-75
2023/11/22 10:36:09;;;;;;;11.57;5.55;;;6.60;99.90;;;;;;6205733;23;20009;-78
2023/11/22 10:38:35;;;;;;;13.23;6.53;;;6.60;99.90;;;;;;6202527;23;20036;-76
2023/11/22 10:41:05;;;;;;;15.20;6.82;;;6.70;99.90;;;;;;6203642;23;20027;-76
2023/11/22 10:43:34;;;;;;;14.45;6.53;;;6.80;99.90;;;;;;6204045;23;20124;-78
2023/11/22 10:46:02;;;;;;;15.88;6.18;;;6.80;99.90;;;;;;6203857;23;20039;-77
2023/11/22 10:48:30;;;;;;;16.33;6.28;;;6.80;99.90;;;;;;6204415;23;20056;-77
2023/11/22 10:50:58;;;;;;;14.23;6.32;;;6.90;99.90;;;;;;6206066;23;20005;-76
2023/11/22 10:53:32;;;;;;;14.25;6.43;;;6.90;99.90;;;;;;6202850;23;20024;-76
2023/11/22 10:56:15;;;;;;;11.75;5.55;;;7.00;99.90;;;;;;6206023;23;20011;-74
2023/11/22 10:58:56;;;;;;;12.32;5.95;;;7.00;99.90;;;;;;6205043;23;20150;-75
2023/11/22 11:01:25;;;;;;;15.38;6.25;;;7.00;99.90;;;;;;6204294;23;20013;-76
2023/11/22 11:04:11;;;;;;;12.88;5.80;;;7.00;99.90;;;;;;6203636;23;20004;-78
2023/11/22 11:06:37;;;;;;;16.45;6.72;;;7.00;99.90;;;;;;6203293;23;20008;-78
2023/11/22 11:09:05;;;;;;;13.93;5.95;;;7.10;99.90;;;;;;6205477;23;20020;-76
2023/11/22 11:11:32;;;;;;;14.00;5.70;;;7.20;99.90;;;;;;6202429;23;20020;-76
2023/11/22 11:13:59;;;;;;;12.48;6.03;;;7.20;99.90;;;;;;6205657;23;20067;-78
2023/11/22 11:16:26;;;;;;;13.93;6.60;;;7.20;99.90;;;;;;6204649;23;20024;-75
2023/11/22 11:18:53;;;;;;;12.45;5.85;;;7.30;99.90;;;;;;6205743;23;20040;-76
2023/11/22 11:21:19;;;;;;;14.93;6.47;;;7.30;99.90;;;;;;6201760;23;20111;-77
2023/11/22 11:23:44;;;;;;;10.77;5.38;;;7.20;99.90;;;;;;6205628;23;20008;-77
2023/11/22 11:26:23;;;;;;;10.85;5.30;;;7.20;99.90;;;;;;6204286;23;20442;-77
2023/11/22 11:28:51;;;;;;;16.50;6.32;;;7.20;99.90;;;;;;6204536;23;20161;-76
2023/11/22 11:31:20;;;;;;;13.80;6.18;;;7.20;99.90;;;;;;6202417;23;20012;-76
2023/11/22 11:33:48;;;;;;;22.10;6.53;;;7.10;99.90;;;;;;6206345;23;20035;-77
2023/11/22 11:36:32;;;;;;;11.32;5.50;;;7.10;99.90;;;;;;6202874;23;20051;-76
2023/11/22 11:39:03;;;;;;;12.27;6.05;;;7.10;99.90;;;;;;6205224;23;20827;-75
2023/11/22 11:41:32;;;;;;;16.77;7.28;;;7.00;99.90;;;;;;6204654;23;20389;-76
2023/11/22 11:43:59;;;;;;;12.45;6.13;;;7.00;99.90;;;;;;6203699;23;20019;-76
2023/11/22 11:46:27;;;;;;;13.77;5.93;;;7.00;99.90;;;;;;6204610;23;20017;-76
2023/11/22 11:48:53;;;;;;;12.70;6.22;;;7.00;99.90;;;;;;6205232;23;20023;-75
2023/11/22 11:51:28;;;;;;;12.45;5.45;;;7.00;99.90;;;;;;6204894;23;20482;-76
2023/11/22 11:53:55;;;;;;;12.45;6.22;;;7.00;99.90;;;;;;6206035;23;20012;-76
2023/11/22 11:56:21;;;;;;;15.77;6.45;;;7.00;99.90;;;;;;6204948;23;20017;-78
2023/11/22 11:58:49;;;;;;;17.33;7.00;;;7.00;99.90;;;;;;6204487;23;20524;-76
2023/11/22 12:01:21;;;;;;;13.85;6.70;;;7.00;99.90;;;;;;6203266;23;20812;-77
2023/11/22 12:03:47;;;;;;;14.75;6.95;;;7.10;99.90;;;;;;6205938;23;20004;-76
2023/11/22 12:06:17;;;;;;;15.05;6.80;;;7.10;99.90;;;;;;6204944;23;20618;-78
2023/11/22 12:08:44;;;;;;;12.80;6.00;;;7.10;99.90;;;;;;6206179;23;20020;-75
2023/11/22 12:11:10;;;;;;;14.32;5.65;;;7.10;99.90;;;;;;6205683;23;20447;-78
2023/11/22 12:13:46;;;;;;;13.20;6.40;;;7.00;99.90;;;;;;6205506;23;20016;-76
2023/11/22 12:16:14;;;;;;;18.95;7.78;;;7.00;99.90;;;;;;6205371;23;20004;-76
2023/11/22 12:18:47;;;;;;;14.25;6.18;;;7.00;99.90;;;;;;6206022;23;20004;-76
2023/11/22 12:21:15;;;;;;;19.10;7.68;;;7.00;99.90;;;;;;6204472;23;20079;-77
2023/11/22 12:23:42;;;;;;;12.77;6.15;;;7.00;99.90;;;;;;6206217;23;20017;-76
2023/11/22 12:26:19;;;;;;;13.50;7.13;;;7.00;99.90;;;;;;6206088;23;20023;-75
2023/11/22 12:28:47;;;;;;;14.15;6.65;;;7.00;99.90;;;;;;6205293;23;20126;-77
2023/11/22 12:31:14;;;;;;;12.45;6.40;;;7.00;99.90;;;;;;6203589;23;20758;-76
2023/11/22 12:33:41;;;;;;;14.95;7.22;;;7.10;99.90;;;;;;6204213;23;20016;-78
2023/11/22 12:36:16;;;;;;;13.40;5.75;;;7.20;99.90;;;;;;6206437;23;20009;-77
2023/11/22 12:38:41;;;;;;;14.65;7.10;;;7.30;99.90;;;;;;6205373;23;20038;-77
2023/11/22 12:41:07;;;;;;;18.35;6.93;;;7.30;99.90;;;;;;6205870;23;20442;-76
2023/11/22 12:43:33;;;;;;;16.08;7.20;;;7.40;99.90;;;;;;6204913;23;20084;-76
2023/11/22 12:46:06;;;;;;;19.90;7.40;;;7.40;99.90;;;;;;6206130;23;20022;-76
2023/11/22 12:48:32;;;;;;;15.82;7.32;;;7.50;99.90;;;;;;6203726;23;20050;-77
2023/11/22 12:50:59;;;;;;;15.02;6.70;;;7.50;99.90;;;;;;6204825;23;20031;-76